createdAt,value
2023-03-02T00:00:01.036Z,11.27
2023-03-02T00:02:32.389Z,10.73
2023-03-02T00:05:07.005Z,11.82
2023-03-02T00:07:38.994Z,11.20
2023-03-02T00:10:10.409Z,11.48
2023-03-02T00:12:40.754Z,12.63
2023-03-02T00:15:12.671Z,11.02
2023-03-02T00:17:42.980Z,13.57
2023-03-02T00:20:19.218Z,11.93
2023-03-02T00:22:50.012Z,12.93
2023-03-02T00:25:20.958Z,15.70
2023-03-02T00:27:51.504Z,15.10
2023-03-02T00:30:22.021Z,14.35
2023-03-02T00:32:52.435Z,12.88
2023-03-02T00:35:26.154Z,12.13
2023-03-02T00:37:56.782Z,10.43
2023-03-02T00:40:27.107Z,10.25
2023-03-02T00:42:57.475Z,9.60
2023-03-02T00:45:29.478Z,9.32
2023-03-02T00:47:59.790Z,8.95
2023-03-02T00:50:33.258Z,8.90
2023-03-02T00:53:03.597Z,9.65
2023-03-02T00:55:34.011Z,9.43
2023-03-02T00:58:04.509Z,9.93
2023-03-02T01:00:38.155Z,9.30
2023-03-02T01:03:10.714Z,10.00
2023-03-02T01:05:43.717Z,9.90
2023-03-02T01:08:14.371Z,9.48
2023-03-02T01:10:44.942Z,9.75
2023-03-02T01:13:15.285Z,9.98
2023-03-02T01:15:45.677Z,9.55
2023-03-02T01:18:16.324Z,9.85
2023-03-02T01:20:50.788Z,8.80
2023-03-02T01:23:21.119Z,14.57
2023-03-02T01:25:52.245Z,10.85
2023-03-02T01:28:22.661Z,10.43
2023-03-02T01:30:53.109Z,11.73
2023-03-02T01:33:23.655Z,11.20
2023-03-02T01:35:56.689Z,11.38
2023-03-02T01:38:27.256Z,10.60
2023-03-02T01:40:57.989Z,10.77
2023-03-02T01:43:29.499Z,10.30
2023-03-02T01:46:02.414Z,10.38
2023-03-02T01:48:45.551Z,11.23
2023-03-02T01:51:23.750Z,11.55
2023-03-02T01:53:58.035Z,10.38
2023-03-02T01:56:34.808Z,10.07
2023-03-02T02:01:41.872Z,9.52
2023-03-02T02:04:13.194Z,9.63
2023-03-02T02:06:51.998Z,9.70
2023-03-02T02:09:25.545Z,9.65
2023-03-02T02:11:56.126Z,10.05
2023-03-02T02:14:26.806Z,9.35
2023-03-02T02:16:57.784Z,9.80
2023-03-02T02:19:46.560Z,9.48
2023-03-02T02:22:27.127Z,9.48
2023-03-02T02:25:03.490Z,9.27
2023-03-02T02:27:36.760Z,9.90
2023-03-02T02:30:09.284Z,8.85
2023-03-02T02:40:41.238Z,8.57
2023-03-02T02:43:17.692Z,9.10
2023-03-02T02:45:49.003Z,9.88
2023-03-02T02:48:23.259Z,9.30
2023-03-02T02:51:00.592Z,10.75
2023-03-02T02:53:35.958Z,9.45
2023-03-02T02:56:09.680Z,9.60
2023-03-02T02:58:45.889Z,9.65
2023-03-02T03:01:18.407Z,10.20
2023-03-02T03:03:54.118Z,10.52
2023-03-02T03:06:30.706Z,9.68
2023-03-02T03:09:04.624Z,10.00
2023-03-02T03:11:51.329Z,10.38
2023-03-02T03:14:29.662Z,10.02
2023-03-02T03:17:00.774Z,9.60
2023-03-02T03:19:33.372Z,9.63
2023-03-02T03:22:05.610Z,10.10
2023-03-02T03:24:38.823Z,11.18
2023-03-02T03:27:11.102Z,10.35
2023-03-02T03:29:52.164Z,9.90
2023-03-02T03:32:24.335Z,10.75
2023-03-02T03:34:57.929Z,10.13
2023-03-02T03:37:32.385Z,9.93
2023-03-02T03:40:06.008Z,9.75
2023-03-02T03:42:37.303Z,10.43
2023-03-02T03:45:11.757Z,10.02
2023-03-02T03:47:43.349Z,10.27
2023-03-02T03:50:14.760Z,10.45
2023-03-02T03:52:46.381Z,9.85
2023-03-02T03:55:22.694Z,10.85
2023-03-02T03:57:53.769Z,11.77
2023-03-02T04:00:27.347Z,10.27
2023-03-02T04:03:04.785Z,12.25
2023-03-02T04:05:36.328Z,10.77
2023-03-02T04:08:08.092Z,10.68
2023-03-02T04:10:39.173Z,10.55
2023-03-02T04:13:09.889Z,11.77
2023-03-02T04:15:45.951Z,11.10
2023-03-02T04:18:17.541Z,11.18
2023-03-02T04:20:48.027Z,10.75
2023-03-02T04:23:19.221Z,10.80
2023-03-02T04:25:49.759Z,12.35
2023-03-02T04:28:23.482Z,10.68
2023-03-02T04:30:57.413Z,12.10
2023-03-02T04:33:27.833Z,11.27
2023-03-02T04:35:58.255Z,12.20
2023-03-02T04:38:29.686Z,12.20
2023-03-02T04:41:00.827Z,12.88
2023-03-02T04:43:32.406Z,12.02
2023-03-02T04:46:05.624Z,10.32
2023-03-02T04:48:36.117Z,10.73
2023-03-02T04:51:06.661Z,10.90
2023-03-02T04:53:37.010Z,11.57
2023-03-02T04:56:08.110Z,12.02
2023-03-02T04:58:38.421Z,13.63
2023-03-02T05:01:12.824Z,14.70
2023-03-02T05:03:43.424Z,14.35
2023-03-02T05:06:13.780Z,14.18
2023-03-02T05:08:44.298Z,13.75
2023-03-02T05:11:22.600Z,14.02
2023-03-02T05:13:53.707Z,15.52
2023-03-02T05:16:29.459Z,13.82
2023-03-02T05:19:00.027Z,14.48
2023-03-02T05:21:30.564Z,14.27
2023-03-02T05:24:01.229Z,14.10
2023-03-02T05:26:32.321Z,14.65
2023-03-02T05:29:03.001Z,11.00
2023-03-02T05:31:39.501Z,11.52
2023-03-02T05:34:12.042Z,11.60
2023-03-02T05:36:43.876Z,12.55
2023-03-02T05:39:14.315Z,13.20
2023-03-02T05:41:44.817Z,12.32
2023-03-02T05:44:15.154Z,13.00
2023-03-02T05:46:49.654Z,12.00
2023-03-02T05:49:20.232Z,12.35
2023-03-02T05:51:50.578Z,12.60
2023-03-02T05:54:20.882Z,13.85
2023-03-02T05:56:51.301Z,14.52
2023-03-02T05:59:21.611Z,15.98
2023-03-02T06:01:58.874Z,16.45
2023-03-02T06:04:29.377Z,16.88
2023-03-02T06:06:59.672Z,18.50
2023-03-02T06:09:29.964Z,17.60
2023-03-02T06:12:00.294Z,17.05
2023-03-02T06:14:30.621Z,18.42
2023-03-02T06:17:03.937Z,18.95
2023-03-02T06:19:34.252Z,19.38
2023-03-02T06:22:04.666Z,19.00
2023-03-02T06:24:34.963Z,19.25
2023-03-02T06:27:05.253Z,19.70
2023-03-02T06:29:35.699Z,16.17
2023-03-02T06:32:10.596Z,15.45
2023-03-02T06:34:41.044Z,15.60
2023-03-02T06:37:11.358Z,16.33
2023-03-02T06:39:41.819Z,14.00
2023-03-02T06:42:12.154Z,14.25
2023-03-02T06:44:42.540Z,18.63
2023-03-02T06:47:15.553Z,18.48
2023-03-02T06:49:45.930Z,17.15
2023-03-02T06:52:16.469Z,17.88
2023-03-02T06:54:46.967Z,21.98
2023-03-02T06:57:17.317Z,20.63
2023-03-02T06:59:47.611Z,17.15
2023-03-02T07:02:20.587Z,17.65
2023-03-02T07:04:50.917Z,20.77
2023-03-02T07:07:21.243Z,19.90
2023-03-02T07:09:51.604Z,22.95
2023-03-02T07:12:22.101Z,21.08
2023-03-02T07:14:52.405Z,21.27
2023-03-02T07:17:25.349Z,20.73
2023-03-02T07:19:55.689Z,20.15
2023-03-02T07:22:26.028Z,23.60
2023-03-02T07:24:56.342Z,18.55
2023-03-02T07:27:26.623Z,20.00
2023-03-02T07:29:56.901Z,23.17
2023-03-02T07:32:29.904Z,22.05
2023-03-02T07:35:00.247Z,19.65
2023-03-02T07:37:30.582Z,19.00
2023-03-02T07:40:01.143Z,21.50
2023-03-02T07:42:31.574Z,24.33
2023-03-02T07:45:05.353Z,21.90
2023-03-02T07:47:38.818Z,20.30
2023-03-02T07:50:11.118Z,17.48
2023-03-02T07:52:41.538Z,16.67
2023-03-02T07:55:13.224Z,22.45
2023-03-02T07:57:44.369Z,19.67
2023-03-02T08:00:16.508Z,21.45
2023-03-02T08:02:50.053Z,24.02
2023-03-02T08:05:20.545Z,24.90
2023-03-02T08:07:50.813Z,23.10
2023-03-02T08:10:21.370Z,21.45
2023-03-02T08:12:51.870Z,20.45
2023-03-02T08:15:23.564Z,20.08
2023-03-02T08:17:56.709Z,18.40
2023-03-02T08:20:27.588Z,20.30
2023-03-02T08:22:57.946Z,20.73
2023-03-02T08:25:28.413Z,21.90
2023-03-02T08:27:58.714Z,21.13
2023-03-02T08:30:29.085Z,22.50
2023-03-02T08:33:05.922Z,22.25
2023-03-02T08:35:37.938Z,22.17
2023-03-02T08:38:09.999Z,23.95
2023-03-02T08:40:40.638Z,25.27
2023-03-02T08:43:10.871Z,22.15
2023-03-02T08:45:51.529Z,21.65
2023-03-02T08:48:26.686Z,21.98
2023-03-02T08:51:02.843Z,21.52
2023-03-02T08:53:35.602Z,22.13
2023-03-02T08:56:07.503Z,22.70
2023-03-02T08:58:37.906Z,21.63
2023-03-02T09:01:10.043Z,22.80
2023-03-02T09:03:43.302Z,22.42
2023-03-02T09:06:13.682Z,22.05
2023-03-02T09:08:44.342Z,22.27
2023-03-02T09:11:14.922Z,23.75
2023-03-02T09:13:45.822Z,23.20
2023-03-02T09:16:17.091Z,22.20
2023-03-02T09:18:50.413Z,21.58
2023-03-02T09:21:20.869Z,22.73
2023-03-02T09:23:53.882Z,22.75
2023-03-02T09:26:24.345Z,23.80
2023-03-02T09:28:54.926Z,23.33
2023-03-02T09:31:26.912Z,22.60
2023-03-02T09:34:01.392Z,25.38
2023-03-02T09:36:32.887Z,22.30
2023-03-02T09:39:08.598Z,22.77
2023-03-02T09:42:10.858Z,22.00
2023-03-02T09:45:11.908Z,23.00
2023-03-02T09:47:50.870Z,23.77
2023-03-02T09:50:31.261Z,23.55
2023-03-02T09:53:22.831Z,23.27
2023-03-02T09:56:00.458Z,22.83
2023-03-02T09:58:36.632Z,23.08
2023-03-02T10:01:16.560Z,22.38
2023-03-02T10:03:54.453Z,22.23
2023-03-02T10:06:27.799Z,23.20
2023-03-02T10:08:58.671Z,24.48
2023-03-02T10:11:37.188Z,22.33
2023-03-02T10:14:13.087Z,22.20
2023-03-02T10:16:50.713Z,21.38
2023-03-02T10:19:26.867Z,27.42
2023-03-02T10:22:05.016Z,28.27
2023-03-02T10:24:41.882Z,32.05
2023-03-02T10:29:56.762Z,23.10
2023-03-02T10:32:30.331Z,22.15
2023-03-02T10:35:04.192Z,22.17
2023-03-02T10:37:39.068Z,23.98
2023-03-02T10:40:25.174Z,22.10
2023-03-02T10:43:00.595Z,24.20
2023-03-02T10:45:33.762Z,22.40
2023-03-02T10:48:05.468Z,23.92
2023-03-02T10:50:36.437Z,22.42
2023-03-02T10:53:11.159Z,23.02
2023-03-02T10:55:48.740Z,23.05
2023-03-02T10:58:28.302Z,22.63
2023-03-02T11:01:00.793Z,21.75
2023-03-02T11:03:37.890Z,20.25
2023-03-02T11:06:22.644Z,20.75
2023-03-02T11:09:05.318Z,21.58
2023-03-02T11:11:39.723Z,21.88
2023-03-02T11:14:18.817Z,26.85
2023-03-02T11:16:49.231Z,22.00
2023-03-02T11:19:25.579Z,21.25
2023-03-02T11:22:02.312Z,20.83
2023-03-02T11:24:42.227Z,21.23
2023-03-02T11:27:20.191Z,19.58
2023-03-02T11:29:55.101Z,20.85
2023-03-02T11:32:32.496Z,20.27
2023-03-02T11:35:08.106Z,19.38
2023-03-02T11:37:42.776Z,20.08
2023-03-02T11:40:26.541Z,21.40
2023-03-02T11:43:00.531Z,20.27
2023-03-02T11:45:33.616Z,20.67
2023-03-02T11:48:08.577Z,20.70
2023-03-02T11:50:54.343Z,19.05
2023-03-02T11:53:28.106Z,20.88
2023-03-02T11:56:01.331Z,22.83
2023-03-02T11:58:33.716Z,20.23
2023-03-02T12:01:06.167Z,20.90
2023-03-02T12:03:45.043Z,19.30
2023-03-02T12:06:37.076Z,18.58
2023-03-02T12:09:31.222Z,20.00
2023-03-02T12:12:28.365Z,17.80
2023-03-02T12:14:58.713Z,16.77
2023-03-02T12:17:36.755Z,17.63
2023-03-02T12:20:29.872Z,17.35
2023-03-02T12:23:11.831Z,18.13
2023-03-02T12:25:51.766Z,17.30
2023-03-02T12:28:37.216Z,18.85
2023-03-02T12:31:11.391Z,17.27
2023-03-02T12:33:46.979Z,16.90
2023-03-02T12:36:21.506Z,16.70
2023-03-02T12:39:04.660Z,16.83
2023-03-02T12:41:54.700Z,15.55
2023-03-02T12:44:46.125Z,14.27
2023-03-02T12:47:27.372Z,16.08
2023-03-02T12:50:00.771Z,16.83
2023-03-02T12:52:33.498Z,17.42
2023-03-02T12:55:06.734Z,15.55
2023-03-02T12:57:40.311Z,14.73
2023-03-02T13:00:21.087Z,14.80
2023-03-02T13:02:53.050Z,15.98
2023-03-02T13:05:25.951Z,15.13
2023-03-02T13:08:02.928Z,16.67
2023-03-02T13:10:38.514Z,15.30
2023-03-02T13:13:18.797Z,15.00
2023-03-02T13:15:57.392Z,15.57
2023-03-02T13:18:32.175Z,16.85
2023-03-02T13:21:03.616Z,16.92
2023-03-02T13:23:36.270Z,18.23
2023-03-02T13:26:08.457Z,17.27
2023-03-02T13:28:40.941Z,19.42
2023-03-02T13:31:23.098Z,20.80
2023-03-02T13:33:55.875Z,18.80
2023-03-02T13:36:28.819Z,19.30
2023-03-02T13:39:01.451Z,20.63
2023-03-02T13:41:33.713Z,19.48
2023-03-02T13:44:20.046Z,19.73
2023-03-02T13:46:53.016Z,21.88
2023-03-02T13:49:30.596Z,20.95
2023-03-02T13:52:08.155Z,22.27
2023-03-02T13:54:40.377Z,19.92
2023-03-02T13:57:18.073Z,21.15
2023-03-02T13:59:48.464Z,20.30
2023-03-02T14:02:28.141Z,20.70
2023-03-02T14:04:59.432Z,20.73
2023-03-02T14:07:29.986Z,22.33
2023-03-02T14:10:00.277Z,21.02
2023-03-02T14:12:33.810Z,21.25
2023-03-02T14:15:06.835Z,20.20
2023-03-02T14:17:39.804Z,18.75
2023-03-02T14:20:13.768Z,19.65
2023-03-02T14:22:44.838Z,19.80
2023-03-02T14:25:15.891Z,20.90
2023-03-02T14:27:49.796Z,19.15
2023-03-02T14:30:22.585Z,20.00
2023-03-02T14:32:55.588Z,19.63
2023-03-02T14:35:27.957Z,20.98
2023-03-02T14:37:58.377Z,17.83
2023-03-02T14:40:30.729Z,21.30
2023-03-02T14:43:01.104Z,19.48
2023-03-02T14:45:31.457Z,20.40
2023-03-02T14:48:04.470Z,19.77
2023-03-02T14:50:38.526Z,20.67
2023-03-02T14:53:18.135Z,18.17
2023-03-02T14:55:49.344Z,20.48
2023-03-02T14:58:22.861Z,21.13
2023-03-02T15:00:53.132Z,21.35
2023-03-02T15:03:26.926Z,20.42
2023-03-02T15:06:02.162Z,21.20
2023-03-02T15:08:32.971Z,20.05
2023-03-02T15:11:03.313Z,21.52
2023-03-02T15:13:33.622Z,23.17
2023-03-02T15:16:03.990Z,17.80
2023-03-02T15:18:36.962Z,20.30
2023-03-02T15:21:07.494Z,20.20
2023-03-02T15:23:37.902Z,21.52
2023-03-02T15:26:08.671Z,18.17
2023-03-02T15:28:39.020Z,20.83
2023-03-02T15:31:14.048Z,22.13
2023-03-02T15:33:47.976Z,21.02
2023-03-02T15:36:18.440Z,20.27
2023-03-02T15:38:52.363Z,21.13
2023-03-02T15:41:23.101Z,21.90
2023-03-02T15:43:54.003Z,23.30
2023-03-02T15:46:24.642Z,15.98
2023-03-02T15:48:57.590Z,21.25
2023-03-02T15:51:28.072Z,24.33
2023-03-02T15:53:58.378Z,24.90
2023-03-02T15:56:38.812Z,23.25
2023-03-02T15:59:14.710Z,24.80
2023-03-02T16:01:45.005Z,23.33
2023-03-02T16:04:17.981Z,24.98
2023-03-02T16:06:48.410Z,25.13
2023-03-02T16:09:18.808Z,24.67
2023-03-02T16:11:49.193Z,24.15
2023-03-02T16:14:19.570Z,25.00
2023-03-02T16:16:50.071Z,27.23
2023-03-02T16:19:23.079Z,24.17
2023-03-02T16:21:53.354Z,25.90
2023-03-02T16:24:23.655Z,26.05
2023-03-02T16:26:56.002Z,25.85
2023-03-02T16:29:26.993Z,25.73
2023-03-02T16:31:57.410Z,26.02
2023-03-02T16:34:30.370Z,23.73
2023-03-02T16:37:01.109Z,25.10
2023-03-02T16:39:32.882Z,25.42
2023-03-02T16:42:03.204Z,24.85
2023-03-02T16:44:33.625Z,24.73
2023-03-02T16:47:04.093Z,24.35
2023-03-02T16:49:37.050Z,24.67
2023-03-02T16:52:12.576Z,24.60
2023-03-02T16:54:49.774Z,24.50
2023-03-02T16:59:52.195Z,23.88
2023-03-02T17:02:22.629Z,24.45
2023-03-02T17:04:55.732Z,23.50
2023-03-02T17:07:26.067Z,25.08
2023-03-02T17:09:56.926Z,23.83
2023-03-02T17:12:27.301Z,22.15
2023-03-02T17:14:57.690Z,24.23
2023-03-02T17:17:28.256Z,24.25
2023-03-02T17:20:01.286Z,23.95
2023-03-02T17:22:31.635Z,23.63
2023-03-02T17:25:04.510Z,22.40
2023-03-02T17:27:35.544Z,25.98
2023-03-02T17:30:06.908Z,25.55
2023-03-02T17:32:58.244Z,20.90
2023-03-02T17:35:31.197Z,20.15
2023-03-02T17:38:01.495Z,17.67
2023-03-02T17:40:31.965Z,19.10
2023-03-02T17:43:02.378Z,16.98
2023-03-02T17:45:33.095Z,17.25
2023-03-02T17:48:03.540Z,15.88
2023-03-02T17:50:37.644Z,16.17
2023-03-02T17:53:08.022Z,15.68
2023-03-02T17:55:39.122Z,15.75
2023-03-02T17:58:09.569Z,15.63
2023-03-02T18:00:40.633Z,15.27
2023-03-02T18:03:10.956Z,15.55
2023-03-02T18:05:43.879Z,15.65
2023-03-02T18:08:14.354Z,15.60
2023-03-02T18:10:45.921Z,15.13
2023-03-02T18:13:16.440Z,14.40
2023-03-02T18:15:46.808Z,17.02
2023-03-02T18:18:17.272Z,15.27
2023-03-02T18:20:50.206Z,17.45
2023-03-02T18:23:21.588Z,16.17
2023-03-02T18:25:52.351Z,16.02
2023-03-02T18:28:22.715Z,15.80
2023-03-02T18:30:53.533Z,15.98
2023-03-02T18:33:24.147Z,17.38
2023-03-02T18:35:57.461Z,17.27
2023-03-02T18:38:31.066Z,16.88
2023-03-02T18:41:03.241Z,18.75
2023-03-02T18:43:35.200Z,19.25
2023-03-02T18:46:05.851Z,18.77
2023-03-02T18:48:37.561Z,21.40
2023-03-02T18:51:10.518Z,20.38
2023-03-02T18:53:41.193Z,20.67
2023-03-02T18:56:12.150Z,20.42
2023-03-02T18:58:42.944Z,20.42
2023-03-02T19:01:14.090Z,22.17
2023-03-02T19:03:46.082Z,22.15
2023-03-02T19:06:20.631Z,21.42
2023-03-02T19:08:51.033Z,20.13
2023-03-02T19:11:22.270Z,22.15
2023-03-02T19:13:52.596Z,20.92
2023-03-02T19:16:22.979Z,22.13
2023-03-02T19:18:53.322Z,24.17
2023-03-02T19:21:26.317Z,22.38
2023-03-02T19:23:57.296Z,23.23
2023-03-02T19:26:27.672Z,23.20
2023-03-02T19:28:58.057Z,22.48
2023-03-02T19:31:31.422Z,24.45
2023-03-02T19:34:04.472Z,25.95
2023-03-02T19:36:37.910Z,26.48
2023-03-02T19:39:08.321Z,25.17
2023-03-02T19:41:38.671Z,25.90
2023-03-02T19:44:09.967Z,25.50
2023-03-02T19:46:40.292Z,25.13
2023-03-02T19:49:10.692Z,26.25
2023-03-02T19:51:43.750Z,25.27
2023-03-02T19:54:14.147Z,25.88
2023-03-02T19:56:49.911Z,27.00
2023-03-02T19:59:21.664Z,25.02
2023-03-02T20:01:53.015Z,26.20
2023-03-02T20:04:23.471Z,24.85
2023-03-02T20:06:56.425Z,25.13
2023-03-02T20:09:28.312Z,27.33
2023-03-02T20:12:00.269Z,29.92
2023-03-02T20:14:33.973Z,29.40
2023-03-02T20:17:05.047Z,29.15
2023-03-02T20:19:35.651Z,31.23
2023-03-02T20:22:09.926Z,31.83
2023-03-02T20:24:40.565Z,28.15
2023-03-02T20:27:12.381Z,28.77
2023-03-02T20:29:45.570Z,27.48
2023-03-02T20:32:17.613Z,26.30
2023-03-02T20:34:51.580Z,25.95
2023-03-02T20:37:26.920Z,26.80
2023-03-02T20:39:57.575Z,25.15
2023-03-02T20:42:28.327Z,26.73
2023-03-02T20:45:00.947Z,26.52
2023-03-02T20:47:32.569Z,27.00
2023-03-02T20:50:03.445Z,26.73
2023-03-02T20:52:37.129Z,26.10
2023-03-02T20:55:09.043Z,27.40
2023-03-02T20:57:39.617Z,29.23
2023-03-02T21:00:12.002Z,27.70
2023-03-02T21:02:42.611Z,25.58
2023-03-02T21:05:13.122Z,26.05
2023-03-02T21:07:46.379Z,25.95
2023-03-02T21:10:20.814Z,25.45
2023-03-02T21:12:51.817Z,25.08
2023-03-02T21:15:24.076Z,24.92
2023-03-02T21:17:54.849Z,24.00
2023-03-02T21:20:26.217Z,24.85
2023-03-02T21:22:59.480Z,24.42
2023-03-02T21:25:30.436Z,23.58
2023-03-02T21:28:02.586Z,23.10
2023-03-02T21:30:36.670Z,24.75
2023-03-02T21:33:08.845Z,23.48
2023-03-02T21:35:39.772Z,23.27
2023-03-02T21:38:15.081Z,22.40
2023-03-02T21:40:46.114Z,22.23
2023-03-02T21:43:18.651Z,24.52
2023-03-02T21:45:50.285Z,22.85
2023-03-02T21:48:23.025Z,23.20
2023-03-02T21:50:54.635Z,24.20
2023-03-02T21:53:28.523Z,23.58
2023-03-02T21:55:59.480Z,23.38
2023-03-02T21:58:29.924Z,23.08
2023-03-02T22:01:00.348Z,24.27
2023-03-02T22:03:30.719Z,23.77
2023-03-02T22:06:01.167Z,23.48
2023-03-02T22:08:35.399Z,22.98
2023-03-02T22:11:05.805Z,23.80
2023-03-02T22:13:37.460Z,21.65
2023-03-02T22:16:16.249Z,21.85
2023-03-02T22:18:49.096Z,22.75
2023-03-02T22:21:34.736Z,21.58
2023-03-02T22:24:20.714Z,21.40
2023-03-02T22:26:56.272Z,21.98
2023-03-02T22:29:28.155Z,22.27
2023-03-02T22:32:00.789Z,21.98
2023-03-02T22:34:33.662Z,21.42
2023-03-02T22:37:09.347Z,22.48
2023-03-02T22:39:42.575Z,21.98
2023-03-02T22:42:16.944Z,21.67
2023-03-02T22:44:49.716Z,20.50
2023-03-02T22:47:22.592Z,21.50
2023-03-02T22:49:59.260Z,21.92
2023-03-02T22:52:39.510Z,20.42
2023-03-02T22:55:36.802Z,20.90
2023-03-02T22:58:30.130Z,19.70
2023-03-02T23:01:00.922Z,18.83
2023-03-02T23:03:39.980Z,19.02
2023-03-02T23:06:28.961Z,18.83
2023-03-02T23:09:01.168Z,18.42
2023-03-02T23:11:38.985Z,19.40
2023-03-02T23:14:20.077Z,18.77
2023-03-02T23:16:54.947Z,18.02
2023-03-02T23:19:25.569Z,18.52
2023-03-02T23:21:56.133Z,17.42
2023-03-02T23:24:26.435Z,19.30
2023-03-02T23:26:59.705Z,17.92
2023-03-02T23:29:30.009Z,18.60
2023-03-02T23:32:00.461Z,20.10
2023-03-02T23:34:31.400Z,17.63
2023-03-02T23:37:01.876Z,20.25
2023-03-02T23:39:32.174Z,18.52
2023-03-02T23:42:05.137Z,17.92
2023-03-02T23:44:35.573Z,19.88
2023-03-02T23:47:05.902Z,19.20
2023-03-02T23:49:36.239Z,19.17
2023-03-02T23:52:06.755Z,19.25
2023-03-02T23:54:37.076Z,18.80
2023-03-02T23:57:10.499Z,20.48
2023-03-02T23:59:40.811Z,19.55
